createdAt,value
2018-06-24T00:01:36.333Z,3.40
2018-06-24T00:04:07.147Z,3.50
2018-06-24T00:06:37.882Z,3.37
2018-06-24T00:09:10.112Z,3.57
2018-06-24T00:11:40.615Z,3.50
2018-06-24T00:14:10.883Z,4.40
2018-06-24T00:16:41.083Z,3.77
2018-06-24T00:19:11.709Z,3.10
2018-06-24T00:21:43.093Z,3.37
2018-06-24T00:24:13.676Z,3.50
2018-06-24T00:26:44.248Z,3.47
2018-06-24T00:29:14.942Z,3.80
2018-06-24T00:31:45.774Z,3.50
2018-06-24T00:34:16.313Z,4.13
2018-06-24T00:36:47.088Z,3.90
2018-06-24T00:39:17.651Z,3.57
2018-06-24T00:41:48.506Z,3.80
2018-06-24T00:44:19.802Z,3.83
2018-06-24T00:46:50.372Z,3.60
2018-06-24T00:49:21.640Z,3.70
2018-06-24T00:51:52.362Z,3.77
2018-06-24T00:54:22.997Z,3.93
2018-06-24T00:56:54.247Z,4.13
2018-06-24T00:59:41.848Z,4.23
2018-06-24T01:02:12.511Z,3.73
2018-06-24T01:04:43.152Z,4.77
2018-06-24T01:07:13.646Z,4.53
2018-06-24T01:09:44.279Z,4.23
2018-06-24T01:12:14.998Z,3.90
2018-06-24T01:14:45.893Z,4.67
2018-06-24T01:17:16.377Z,3.83
2018-06-24T01:19:46.947Z,4.40
2018-06-24T01:22:17.878Z,4.80
2018-06-24T01:24:48.998Z,3.33
2018-06-24T01:27:19.718Z,4.40
2018-06-24T01:29:50.609Z,4.03
2018-06-24T01:32:21.794Z,3.77
2018-06-24T01:34:52.903Z,3.70
2018-06-24T01:37:23.633Z,3.60
2018-06-24T01:39:54.269Z,4.07
2018-06-24T01:42:24.778Z,4.33
2018-06-24T01:44:55.560Z,5.80
2018-06-24T01:47:26.250Z,3.87
2018-06-24T01:49:57.002Z,3.37
2018-06-24T01:52:27.706Z,4.10
2018-06-24T01:54:58.236Z,3.20
2018-06-24T01:57:28.741Z,3.87
2018-06-24T01:59:59.393Z,4.00
2018-06-24T02:03:07.608Z,3.57
2018-06-24T02:05:38.300Z,4.20
2018-06-24T02:08:08.860Z,4.80
2018-06-24T02:10:39.450Z,3.37
2018-06-24T02:13:10.157Z,3.67
2018-06-24T02:15:40.656Z,3.70
2018-06-24T02:18:11.402Z,3.33
2018-06-24T02:20:42.010Z,3.60
2018-06-24T02:23:12.577Z,3.37
2018-06-24T02:25:43.365Z,3.77
2018-06-24T02:28:13.982Z,3.73
2018-06-24T02:30:44.538Z,4.43
2018-06-24T02:33:15.123Z,4.10
2018-06-24T02:35:45.715Z,3.40
2018-06-24T02:38:16.429Z,3.67
2018-06-24T02:40:47.010Z,4.17
2018-06-24T02:43:17.643Z,4.90
2018-06-24T02:45:48.538Z,3.60
2018-06-24T02:48:19.071Z,3.67
2018-06-24T02:50:49.537Z,3.73
2018-06-24T02:53:20.136Z,4.10
2018-06-24T02:55:50.690Z,3.93
2018-06-24T02:58:21.366Z,4.50
2018-06-24T03:00:51.836Z,4.37
2018-06-24T03:03:22.691Z,3.43
2018-06-24T03:05:53.363Z,4.27
2018-06-24T03:08:24.097Z,4.33
2018-06-24T03:10:54.742Z,3.53
2018-06-24T03:13:25.439Z,4.10
2018-06-24T03:15:56.139Z,5.60
2018-06-24T03:18:26.917Z,4.00
2018-06-24T03:20:57.548Z,4.30
2018-06-24T03:23:28.117Z,4.10
2018-06-24T03:25:59.604Z,4.13
2018-06-24T03:28:30.184Z,3.93
2018-06-24T03:31:01.242Z,3.70
2018-06-24T03:33:31.989Z,3.80
2018-06-24T03:36:02.806Z,4.10
2018-06-24T03:38:33.671Z,3.77
2018-06-24T03:41:04.406Z,3.30
2018-06-24T03:43:35.035Z,3.70
2018-06-24T03:46:05.635Z,4.10
2018-06-24T03:48:36.204Z,3.77
2018-06-24T03:51:06.839Z,3.43
2018-06-24T03:53:37.537Z,4.20
2018-06-24T03:56:08.309Z,3.77
2018-06-24T03:58:39.020Z,4.07
2018-06-24T04:01:09.631Z,3.53
2018-06-24T04:03:40.191Z,3.70
2018-06-24T04:06:10.912Z,3.13
2018-06-24T04:08:41.644Z,3.40
2018-06-24T04:11:12.279Z,3.47
2018-06-24T04:13:42.768Z,4.20
2018-06-24T04:16:13.454Z,3.50
2018-06-24T04:18:44.890Z,3.10
2018-06-24T04:21:15.978Z,3.53
2018-06-24T04:23:46.581Z,2.60
2018-06-24T04:26:17.233Z,3.13
2018-06-24T04:28:47.822Z,3.13
2018-06-24T04:31:18.096Z,3.03
2018-06-24T04:33:48.654Z,3.80
2018-06-24T04:36:18.852Z,2.90
2018-06-24T04:38:49.369Z,3.03
2018-06-24T04:41:20.666Z,3.10
2018-06-24T04:43:50.944Z,2.93
2018-06-24T04:46:22.262Z,2.50
2018-06-24T04:48:52.780Z,2.90
2018-06-24T04:51:23.411Z,2.70
2018-06-24T04:53:54.044Z,2.83
2018-06-24T04:56:24.771Z,2.50
2018-06-24T04:58:55.648Z,2.37
2018-06-24T05:01:26.980Z,2.80
2018-06-24T05:03:57.709Z,2.70
2018-06-24T05:06:28.489Z,3.10
2018-06-24T05:08:59.345Z,3.10
2018-06-24T05:11:30.045Z,2.83
2018-06-24T05:14:00.781Z,2.27
2018-06-24T05:16:31.486Z,2.80
2018-06-24T05:19:02.117Z,2.63
2018-06-24T05:21:32.833Z,2.20
2018-06-24T05:24:03.564Z,3.37
2018-06-24T05:26:33.718Z,2.87
2018-06-24T05:29:04.513Z,2.87
2018-06-24T05:31:35.979Z,3.90
2018-06-24T05:34:06.685Z,3.30
2018-06-24T05:36:37.347Z,3.43
2018-06-24T05:39:11.385Z,3.70
2018-06-24T05:41:42.532Z,2.77
2018-06-24T05:44:13.150Z,4.03
2018-06-24T05:46:43.962Z,3.70
2018-06-24T05:49:14.716Z,3.63
2018-06-24T05:51:45.730Z,3.20
2018-06-24T05:54:16.486Z,3.57
2018-06-24T05:56:47.222Z,3.40
2018-06-24T05:59:17.919Z,4.40
2018-06-24T06:01:48.605Z,3.80
2018-06-24T06:04:19.210Z,3.93
2018-06-24T06:06:50.120Z,3.60
2018-06-24T06:09:20.678Z,4.70
2018-06-24T06:11:52.045Z,4.27
2018-06-24T06:14:26.940Z,4.23
2018-06-24T06:16:57.569Z,4.00
2018-06-24T06:19:28.168Z,5.23
2018-06-24T06:21:58.878Z,3.80
2018-06-24T06:24:29.501Z,4.53
2018-06-24T06:27:00.120Z,3.80
2018-06-24T06:29:30.721Z,4.63
2018-06-24T06:32:04.241Z,4.90
2018-06-24T06:34:34.745Z,4.20
2018-06-24T06:37:05.223Z,4.40
2018-06-24T06:39:35.444Z,3.67
2018-06-24T06:42:05.986Z,4.97
2018-06-24T06:44:36.503Z,4.20
2018-06-24T06:47:07.663Z,4.60
2018-06-24T06:49:38.593Z,4.13
2018-06-24T06:52:09.817Z,5.10
2018-06-24T06:54:40.410Z,4.37
2018-06-24T06:57:12.090Z,4.50
2018-06-24T06:59:43.218Z,4.80
2018-06-24T07:02:13.881Z,3.10
2018-06-24T07:04:44.215Z,4.00
2018-06-24T07:07:14.683Z,4.20
2018-06-24T07:09:45.246Z,3.80
2018-06-24T07:12:16.090Z,3.27
2018-06-24T07:14:46.435Z,4.07
2018-06-24T07:17:17.558Z,3.90
2018-06-24T07:19:48.245Z,4.37
2018-06-24T07:22:18.913Z,3.37
2018-06-24T07:24:49.044Z,3.00
2018-06-24T07:27:19.467Z,4.03
2018-06-24T07:29:49.692Z,3.50
2018-06-24T07:32:20.470Z,3.10
2018-06-24T07:34:51.059Z,3.70
2018-06-24T07:37:21.273Z,4.50
2018-06-24T07:39:51.647Z,3.70
2018-06-24T07:42:22.938Z,4.37
2018-06-24T07:44:53.475Z,4.60
2018-06-24T07:47:23.892Z,5.20
2018-06-24T07:49:54.364Z,4.83
2018-06-24T07:52:25.876Z,3.60
2018-06-24T07:54:56.820Z,4.13
2018-06-24T07:57:27.188Z,3.50
2018-06-24T07:59:57.889Z,3.10
2018-06-24T08:02:28.420Z,3.67
2018-06-24T08:04:59.101Z,3.43
2018-06-24T08:07:29.850Z,3.53
2018-06-24T08:10:00.503Z,2.80
2018-06-24T08:12:31.256Z,3.13
2018-06-24T08:15:01.794Z,3.37
2018-06-24T08:17:33.060Z,2.90
2018-06-24T08:20:08.612Z,2.57
2018-06-24T08:22:39.390Z,3.10
2018-06-24T08:25:10.252Z,2.63
2018-06-24T08:27:40.955Z,3.30
2018-06-24T08:30:11.520Z,2.93
2018-06-24T08:32:42.257Z,3.50
2018-06-24T08:35:13.005Z,3.50
2018-06-24T08:37:46.641Z,3.53
2018-06-24T08:40:17.400Z,3.27
2018-06-24T08:42:47.804Z,3.57
2018-06-24T08:45:18.389Z,3.00
2018-06-24T08:47:49.021Z,5.20
2018-06-24T08:50:19.756Z,4.63
2018-06-24T08:52:50.447Z,4.30
2018-06-24T08:55:21.136Z,4.20
2018-06-24T08:57:51.985Z,4.83
2018-06-24T09:00:22.621Z,4.97
2018-06-24T09:02:53.712Z,3.73
2018-06-24T09:05:24.194Z,5.50
2018-06-24T09:07:54.965Z,4.97
2018-06-24T09:10:25.737Z,3.53
2018-06-24T09:12:56.515Z,3.87
2018-06-24T09:15:27.280Z,4.60
2018-06-24T09:17:58.225Z,4.20
2018-06-24T09:20:28.928Z,3.97
2018-06-24T09:22:59.591Z,3.77
2018-06-24T09:25:30.165Z,3.90
2018-06-24T09:28:00.785Z,4.93
2018-06-24T09:30:31.841Z,5.77
2018-06-24T09:33:03.468Z,4.20
2018-06-24T09:35:34.974Z,3.90
2018-06-24T09:38:05.944Z,4.30
2018-06-24T09:40:36.796Z,4.30
2018-06-24T09:43:07.423Z,4.57
2018-06-24T09:45:38.098Z,4.03
2018-06-24T09:48:08.833Z,4.00
2018-06-24T09:50:39.464Z,4.57
2018-06-24T09:53:10.037Z,4.57
2018-06-24T09:55:40.690Z,5.73
2018-06-24T09:58:11.417Z,5.10
2018-06-24T10:00:42.120Z,4.70
2018-06-24T10:03:12.720Z,6.77
2018-06-24T10:05:43.449Z,4.83
2018-06-24T10:08:14.682Z,4.70
2018-06-24T10:10:45.409Z,4.03
2018-06-24T10:13:16.177Z,4.53
2018-06-24T10:15:46.900Z,3.60
2018-06-24T10:18:17.538Z,3.90
2018-06-24T10:20:48.803Z,4.30
2018-06-24T10:23:19.472Z,4.10
2018-06-24T10:25:50.286Z,4.13
2018-06-24T10:28:21.004Z,4.40
2018-06-24T10:30:52.000Z,4.90
2018-06-24T10:33:22.821Z,5.47
2018-06-24T10:35:53.549Z,4.70
2018-06-24T10:38:30.807Z,5.27
2018-06-24T10:41:01.501Z,5.60
2018-06-24T10:43:32.717Z,6.13
2018-06-24T10:46:03.462Z,5.13
2018-06-24T10:48:34.247Z,4.37
2018-06-24T10:51:05.079Z,4.27
2018-06-24T10:53:35.651Z,3.90
2018-06-24T10:56:06.746Z,3.50
2018-06-24T10:58:37.967Z,4.10
2018-06-24T11:01:08.559Z,4.30
2018-06-24T11:03:40.325Z,5.67
2018-06-24T11:06:10.953Z,4.43
2018-06-24T11:08:41.497Z,4.23
2018-06-24T11:11:12.232Z,3.40
2018-06-24T11:13:42.789Z,4.83
2018-06-24T11:16:13.359Z,4.33
2018-06-24T11:18:44.143Z,3.90
2018-06-24T11:21:15.063Z,3.50
2018-06-24T11:23:46.316Z,3.37
2018-06-24T11:26:18.164Z,3.40
2018-06-24T11:28:48.584Z,3.07
2018-06-24T11:31:19.865Z,3.90
2018-06-24T11:33:51.026Z,3.77
2018-06-24T11:36:21.680Z,2.67
2018-06-24T11:38:52.516Z,2.93
2018-06-24T11:41:23.153Z,3.30
2018-06-24T11:43:53.488Z,3.30
2018-06-24T11:46:23.903Z,2.90
2018-06-24T11:48:54.901Z,2.10
2018-06-24T11:51:25.914Z,2.73
2018-06-24T11:53:56.625Z,2.40
2018-06-24T11:56:27.985Z,2.60
2018-06-24T11:58:58.924Z,3.03
2018-06-24T12:01:29.253Z,2.63
2018-06-24T12:03:59.729Z,2.90
2018-06-24T12:06:30.400Z,2.73
2018-06-24T12:09:00.679Z,2.87
2018-06-24T12:11:31.439Z,2.80
2018-06-24T12:14:02.009Z,2.53
2018-06-24T12:16:38.121Z,3.47
2018-06-24T12:19:08.819Z,2.80
2018-06-24T12:21:39.468Z,2.80
2018-06-24T12:24:10.466Z,3.20
2018-06-24T12:26:41.185Z,2.50
2018-06-24T12:29:11.706Z,2.53
2018-06-24T12:31:42.238Z,2.63
2018-06-24T12:34:12.811Z,3.30
2018-06-24T12:36:43.877Z,2.40
2018-06-24T12:39:16.797Z,2.30
2018-06-24T12:41:47.140Z,2.53
2018-06-24T12:44:17.593Z,2.70
2018-06-24T12:46:48.184Z,3.40
2018-06-24T12:49:18.799Z,2.43
2018-06-24T12:51:49.592Z,2.33
2018-06-24T12:54:20.216Z,2.63
2018-06-24T12:56:51.064Z,2.57
2018-06-24T12:59:22.072Z,2.57
2018-06-24T13:01:52.024Z,2.43
2018-06-24T13:04:22.523Z,3.70
2018-06-24T13:06:52.713Z,2.60
2018-06-24T13:09:23.133Z,2.70
2018-06-24T13:11:53.898Z,4.67
2018-06-24T13:14:24.252Z,2.80
2018-06-24T13:16:55.716Z,3.30
2018-06-24T13:19:26.222Z,3.40
2018-06-24T13:21:56.966Z,3.57
2018-06-24T13:24:27.582Z,3.10
2018-06-24T13:26:58.404Z,3.70
2018-06-24T13:29:28.805Z,4.10
2018-06-24T13:31:59.435Z,4.03
2018-06-24T13:34:30.041Z,4.13
2018-06-24T13:37:00.650Z,4.40
2018-06-24T13:39:31.464Z,3.70
2018-06-24T13:42:02.159Z,5.13
2018-06-24T13:44:32.870Z,4.73
2018-06-24T13:47:03.472Z,5.20
2018-06-24T13:49:34.253Z,5.07
2018-06-24T13:52:04.843Z,6.13
2018-06-24T13:54:35.458Z,6.80
2018-06-24T13:57:06.479Z,6.17
2018-06-24T13:59:37.250Z,6.10
2018-06-24T14:02:07.882Z,6.40
2018-06-24T14:04:38.466Z,6.00
2018-06-24T14:07:09.618Z,6.30
2018-06-24T14:09:40.424Z,6.37
2018-06-24T14:12:10.960Z,5.43
2018-06-24T14:14:41.694Z,5.60
2018-06-24T14:17:13.930Z,5.80
2018-06-24T14:19:45.159Z,5.73
2018-06-24T14:22:15.921Z,5.10
2018-06-24T14:24:46.617Z,5.03
2018-06-24T14:27:17.270Z,4.53
2018-06-24T14:29:47.767Z,4.40
2018-06-24T14:32:18.430Z,4.87
2018-06-24T14:34:49.474Z,5.33
2018-06-24T14:37:20.636Z,3.93
2018-06-24T14:39:52.368Z,5.00
2018-06-24T14:42:23.084Z,4.77
2018-06-24T14:44:53.277Z,4.27
2018-06-24T14:47:23.981Z,4.20
2018-06-24T14:49:54.519Z,3.90
2018-06-24T14:52:25.352Z,4.60
2018-06-24T14:54:56.162Z,4.50
2018-06-24T14:57:26.991Z,3.73
2018-06-24T14:59:57.877Z,3.70
2018-06-24T15:02:29.081Z,3.40
2018-06-24T15:04:59.609Z,3.80
2018-06-24T15:07:30.327Z,3.50
2018-06-24T15:10:00.604Z,3.10
2018-06-24T15:12:31.040Z,3.57
2018-06-24T15:15:02.062Z,3.20
2018-06-24T15:17:32.659Z,3.70
2018-06-24T15:20:03.234Z,2.93
2018-06-24T15:22:33.894Z,3.10
2018-06-24T15:25:04.890Z,2.80
2018-06-24T15:27:35.551Z,2.60
2018-06-24T15:30:06.746Z,2.60
2018-06-24T15:32:37.425Z,3.00
2018-06-24T15:35:08.105Z,2.83
2018-06-24T15:37:38.758Z,2.70
2018-06-24T15:40:09.497Z,2.83
2018-06-24T15:42:41.342Z,2.20
2018-06-24T15:45:12.034Z,2.47
2018-06-24T15:47:42.938Z,2.73
2018-06-24T15:50:13.778Z,2.30
2018-06-24T15:52:51.629Z,2.33
2018-06-24T15:55:22.313Z,2.13
2018-06-24T15:57:52.946Z,2.20
2018-06-24T16:00:23.634Z,2.40
2018-06-24T16:02:54.313Z,2.97
2018-06-24T16:05:25.594Z,2.73
2018-06-24T16:07:56.578Z,2.70
2018-06-24T16:10:27.163Z,2.27
2018-06-24T16:12:57.842Z,2.50
2018-06-24T16:15:28.500Z,3.43
2018-06-24T16:17:59.089Z,2.93
2018-06-24T16:20:29.845Z,2.90
2018-06-24T16:23:00.545Z,3.20
2018-06-24T16:25:31.072Z,2.80
2018-06-24T16:28:01.596Z,2.63
2018-06-24T16:30:32.299Z,3.00
2018-06-24T16:33:04.592Z,2.83
2018-06-24T16:35:35.785Z,2.87
2018-06-24T16:38:06.677Z,2.87
2018-06-24T16:40:38.037Z,3.40
2018-06-24T16:43:08.429Z,3.10
2018-06-24T16:45:38.936Z,3.70
2018-06-24T16:48:10.142Z,3.07
2018-06-24T16:50:40.889Z,3.33
2018-06-24T16:53:11.534Z,3.63
2018-06-24T16:55:42.240Z,3.10
2018-06-24T16:58:12.921Z,3.63
2018-06-24T17:00:43.130Z,3.17
2018-06-24T17:03:13.303Z,3.60
2018-06-24T17:05:44.655Z,3.00
2018-06-24T17:08:15.528Z,3.57
2018-06-24T17:10:46.442Z,3.23
2018-06-24T17:13:17.434Z,3.77
2018-06-24T17:15:48.209Z,3.47
2018-06-24T17:18:18.826Z,3.67
2018-06-24T17:20:49.607Z,3.80
2018-06-24T17:23:20.144Z,3.77
2018-06-24T17:25:50.959Z,3.30
2018-06-24T17:28:21.243Z,3.37
2018-06-24T17:30:51.693Z,3.50
2018-06-24T17:33:21.936Z,3.60
2018-06-24T17:35:52.625Z,3.75
2018-06-24T17:38:23.334Z,3.43
2018-06-24T17:40:54.050Z,4.50
2018-06-24T17:43:24.689Z,3.80
2018-06-24T17:45:55.367Z,3.53
2018-06-24T17:48:26.852Z,4.03
2018-06-24T17:50:57.560Z,3.70
2018-06-24T17:53:28.340Z,3.43
2018-06-24T17:55:59.584Z,4.43
2018-06-24T17:58:30.041Z,3.70
2018-06-24T18:01:01.016Z,3.93
2018-06-24T18:03:38.109Z,4.50
2018-06-24T18:06:08.744Z,4.07
2018-06-24T18:08:39.655Z,3.70
2018-06-24T18:11:10.631Z,3.70
2018-06-24T18:13:41.326Z,4.37
2018-06-24T18:16:12.096Z,3.53
2018-06-24T18:18:42.793Z,3.33
2018-06-24T18:21:13.721Z,4.30
2018-06-24T18:23:44.699Z,4.43
2018-06-24T18:26:18.670Z,3.20
2018-06-24T18:28:49.943Z,3.80
2018-06-24T18:31:20.659Z,2.93
2018-06-24T18:33:51.320Z,3.40
2018-06-24T18:36:23.007Z,3.80
2018-06-24T18:38:53.839Z,3.60
2018-06-24T18:41:24.659Z,3.80
2018-06-24T18:43:55.278Z,3.73
2018-06-24T18:46:25.910Z,3.33
2018-06-24T18:48:56.864Z,4.33
2018-06-24T18:51:27.857Z,3.30
2018-06-24T18:54:02.766Z,3.80
2018-06-24T18:56:33.596Z,3.73
2018-06-24T18:59:04.524Z,3.60
2018-06-24T19:01:35.271Z,3.90
2018-06-24T19:04:06.048Z,3.63
2018-06-24T19:06:36.909Z,4.03
2018-06-24T19:09:12.386Z,3.47
2018-06-24T19:11:43.590Z,3.10
2018-06-24T19:14:14.567Z,3.60
2018-06-24T19:16:45.370Z,3.37
2018-06-24T19:19:16.125Z,3.57
2018-06-24T19:21:46.853Z,2.80
2018-06-24T19:24:22.594Z,2.93
2018-06-24T19:26:53.369Z,3.10
2018-06-24T19:29:24.442Z,2.60
2018-06-24T19:31:55.584Z,2.90
2018-06-24T19:34:26.359Z,3.03
2018-06-24T19:36:57.951Z,2.80
2018-06-24T19:39:28.763Z,3.90
2018-06-24T19:41:59.644Z,3.13
2018-06-24T19:44:30.395Z,3.57
2018-06-24T19:47:01.162Z,3.40
2018-06-24T19:49:31.790Z,3.70
2018-06-24T19:52:02.535Z,3.30
2018-06-24T19:54:33.170Z,3.13
2018-06-24T19:57:03.846Z,3.63
2018-06-24T19:59:34.610Z,3.60
2018-06-24T20:02:05.463Z,3.70
2018-06-24T20:04:36.999Z,3.10
2018-06-24T20:07:08.015Z,2.83
2018-06-24T20:09:38.492Z,3.30
2018-06-24T20:12:09.313Z,3.70
2018-06-24T20:14:40.565Z,3.60
2018-06-24T20:17:11.374Z,4.20
2018-06-24T20:19:42.030Z,3.47
2018-06-24T20:22:12.939Z,3.80
2018-06-24T20:24:43.625Z,3.30
2018-06-24T20:27:14.312Z,4.57
2018-06-24T20:29:45.213Z,5.00
2018-06-24T20:32:15.844Z,3.70
2018-06-24T20:34:46.657Z,4.57
2018-06-24T20:37:17.344Z,4.43
2018-06-24T20:39:48.168Z,3.80
2018-06-24T20:42:19.004Z,4.10
2018-06-24T20:44:49.792Z,5.30
2018-06-24T20:47:20.561Z,3.73
2018-06-24T20:49:51.634Z,4.67
2018-06-24T20:52:22.424Z,4.37
2018-06-24T20:54:52.947Z,3.67
2018-06-24T20:57:23.622Z,4.17
2018-06-24T20:59:54.353Z,4.30
2018-06-24T21:02:25.621Z,3.90
2018-06-24T21:04:56.521Z,3.70
2018-06-24T21:07:27.273Z,4.17
2018-06-24T21:09:58.685Z,4.97
2018-06-24T21:12:29.720Z,4.50
2018-06-24T21:15:01.038Z,4.20
2018-06-24T21:17:32.270Z,3.80
2018-06-24T21:20:03.033Z,3.40
2018-06-24T21:22:33.654Z,3.67
2018-06-24T21:25:03.892Z,4.00
2018-06-24T21:27:34.398Z,3.30
2018-06-24T21:30:05.036Z,4.07
2018-06-24T21:32:35.804Z,3.73
2018-06-24T21:35:06.508Z,4.20
2018-06-24T21:37:37.098Z,3.83
2018-06-24T21:40:07.370Z,4.17
2018-06-24T21:42:37.970Z,3.50
2018-06-24T21:45:08.496Z,4.40
2018-06-24T21:47:39.797Z,4.10
2018-06-24T21:50:10.497Z,4.00
2018-06-24T21:52:41.332Z,3.60
2018-06-24T21:55:11.937Z,4.20
2018-06-24T21:57:42.587Z,3.80
2018-06-24T22:00:13.221Z,3.97
2018-06-24T22:02:44.010Z,4.10
2018-06-24T22:05:14.870Z,3.80
2018-06-24T22:07:45.432Z,4.23
2018-06-24T22:10:16.030Z,4.37
2018-06-24T22:12:47.114Z,3.67
2018-06-24T22:15:17.913Z,4.00
2018-06-24T22:17:48.605Z,3.77
2018-06-24T22:20:19.488Z,4.20
2018-06-24T22:22:49.768Z,3.97
2018-06-24T22:25:20.344Z,3.50
2018-06-24T22:27:51.269Z,3.87
2018-06-24T22:30:21.882Z,3.77
2018-06-24T22:32:52.252Z,3.53
2018-06-24T22:35:22.751Z,4.37
2018-06-24T22:37:53.208Z,4.60
2018-06-24T22:40:23.733Z,4.10
2018-06-24T22:42:54.699Z,4.10
2018-06-24T22:45:25.391Z,2.93
2018-06-24T22:47:56.091Z,4.10
2018-06-24T22:50:26.629Z,3.80
2018-06-24T22:52:57.361Z,3.37
2018-06-24T22:55:28.346Z,3.97
2018-06-24T22:57:59.061Z,3.80
2018-06-24T23:00:30.429Z,3.47
2018-06-24T23:03:05.288Z,4.00
2018-06-24T23:05:35.867Z,4.23
2018-06-24T23:08:06.732Z,4.60
2018-06-24T23:10:37.670Z,4.17
2018-06-24T23:13:09.185Z,4.57
2018-06-24T23:15:39.468Z,4.60
2018-06-24T23:18:10.065Z,4.70
2018-06-24T23:20:40.777Z,4.63
2018-06-24T23:23:10.951Z,4.43
2018-06-24T23:25:41.290Z,4.50
2018-06-24T23:28:11.964Z,5.17
2018-06-24T23:30:42.510Z,4.37
2018-06-24T23:33:13.147Z,4.70
2018-06-24T23:35:43.869Z,4.63
2018-06-24T23:38:14.660Z,4.30
2018-06-24T23:40:45.396Z,4.30
2018-06-24T23:43:15.977Z,4.30
2018-06-24T23:45:46.585Z,4.37
2018-06-24T23:48:16.918Z,4.87
2018-06-24T23:50:47.415Z,4.83
2018-06-24T23:53:18.101Z,4.03
2018-06-24T23:55:48.798Z,4.40
2018-06-24T23:58:19.028Z,5.10
